RA601 VNLK-VNLK
Flight info
| Callsign | RA601 |
|---|---|
| Flight time | 0h 3m |
| Altitude | 12500 |
| Route | DCT |
| Aircraft | DA62/L-SDFGRY/C |
Departure
| Time | 2026-04-06 15:44 |
|---|---|
| Airport | Tenzing-Hillary Airport (VNLK) |
Arrival
| Time | 2026-04-06 15:47 |
|---|---|
| Airport | Tenzing-Hillary Airport (VNLK) |
| Time | Latitude | Longitude | Altitude | Speed | Heading |
|---|---|---|---|---|---|
| 2026-04-06 14:00 | 27.68745 | 86.73196 | 9406 ft | 0 kts | 240° |
| 2026-04-06 14:26 | 27.68744 | 86.73188 | 9401 ft | 8 kts | 291° |
| 2026-04-06 14:27 | 27.68762 | 86.73167 | 9401 ft | 0 kts | 323° |
| 2026-04-06 14:28 | 27.68767 | 86.73162 | 9400 ft | 3 kts | 326° |
| 2026-04-06 14:29 | 27.68773 | 86.73152 | 9402 ft | 0 kts | 262° |
| 2026-04-06 14:29 | 27.68726 | 86.73059 | 9362 ft | 50 kts | 238° |
| 2026-04-06 14:29 | 27.68388 | 86.72457 | 9159 ft | 120 kts | 235° |
| 2026-04-06 14:29 | 27.67630 | 86.71855 | 9059 ft | 156 kts | 191° |
| 2026-04-06 14:30 | 27.66494 | 86.71795 | 9177 ft | 164 kts | 185° |
| 2026-04-06 14:30 | 27.65779 | 86.71037 | 9524 ft | 148 kts | 263° |
| 2026-04-06 14:30 | 27.66241 | 86.70241 | 9963 ft | 124 kts | 346° |
| 2026-04-06 14:30 | 27.67143 | 86.70502 | 9566 ft | 161 kts | 37° |
| 2026-04-06 14:31 | 27.67939 | 86.71436 | 9048 ft | 166 kts | 56° |
| 2026-04-06 14:31 | 27.68441 | 86.72482 | 9129 ft | 131 kts | 62° |
| 2026-04-06 14:31 | 27.68758 | 86.73108 | 9388 ft | 28 kts | 60° |
| 2026-04-06 14:31 | 27.68739 | 86.73167 | 9405 ft | 11 kts | 163° |
| 2026-04-06 14:32 | 27.68710 | 86.73160 | 9404 ft | 0 kts | 208° |
| 2026-04-06 14:44 | 27.68719 | 86.73162 | 9401 ft | 2 kts | 150° |
| 2026-04-06 14:45 | 27.68720 | 86.73153 | 9403 ft | 1 kts | 54° |
| 2026-04-06 14:45 | 27.68778 | 86.73141 | 9405 ft | 3 kts | 270° |
| 2026-04-06 14:45 | 27.68659 | 86.72933 | 9294 ft | 74 kts | 239° |
| 2026-04-06 14:45 | 27.68231 | 86.72230 | 9079 ft | 133 kts | 219° |
| 2026-04-06 14:46 | 27.67258 | 86.72076 | 9150 ft | 148 kts | 169° |
| 2026-04-06 14:46 | 27.66372 | 86.71878 | 9557 ft | 145 kts | 233° |
| 2026-04-06 14:46 | 27.66631 | 86.70830 | 9635 ft | 157 kts | 338° |
| 2026-04-06 14:46 | 27.67693 | 86.70701 | 9637 ft | 152 kts | 21° |
| 2026-04-06 14:47 | 27.68171 | 86.71664 | 9261 ft | 147 kts | 77° |
| 2026-04-06 14:47 | 27.68529 | 86.72661 | 9184 ft | 123 kts | 63° |
| 2026-04-06 14:47 | 27.68773 | 86.73142 | 9403 ft | 20 kts | 73° |
| 2026-04-06 14:47 | 27.68761 | 86.73165 | 9404 ft | 11 kts | 172° |
| 2026-04-06 14:48 | 27.68725 | 86.73153 | 9406 ft | 0 kts | 225° |
| 2026-04-06 14:54 | 27.68734 | 86.73154 | 9404 ft | 0 kts | 129° |
| 2026-04-06 14:54 | 27.68748 | 86.73174 | 9409 ft | 0 kts | 353° |
| 2026-04-06 14:55 | 27.68771 | 86.73132 | 9398 ft | 13 kts | 234° |
| 2026-04-06 14:55 | 27.68548 | 86.72737 | 9208 ft | 102 kts | 236° |
| 2026-04-06 14:55 | 27.67893 | 86.72163 | 9192 ft | 137 kts | 198° |
| 2026-04-06 14:55 | 27.66878 | 86.72075 | 9376 ft | 151 kts | 177° |
| 2026-04-06 14:56 | 27.65952 | 86.71672 | 9715 ft | 151 kts | 240° |
| 2026-04-06 14:56 | 27.66348 | 86.70735 | 9821 ft | 165 kts | 345° |
| 2026-04-06 14:56 | 27.67530 | 86.71064 | 9402 ft | 185 kts | 32° |
| 2026-04-06 14:56 | 27.68310 | 86.72105 | 9141 ft | 171 kts | 69° |
| 2026-04-06 14:57 | 27.68766 | 86.73088 | 9493 ft | 101 kts | 52° |
| 2026-04-06 14:57 | 27.69193 | 86.71771 | 8943 ft | 176 kts | 260° |
| 2026-04-06 14:57 | 27.68442 | 86.70979 | 8827 ft | 148 kts | 175° |
| 2026-04-06 14:58 | 27.68188 | 86.71808 | 8787 ft | 133 kts | 62° |
| 2026-04-06 14:58 | 27.68570 | 86.72671 | 9330 ft | 113 kts | 58° |
| 2026-04-06 14:58 | 27.69167 | 86.73100 | 9875 ft | 103 kts | 351° |
| 2026-04-06 14:58 | 27.69665 | 86.72394 | 9708 ft | 151 kts | 286° |
| 2026-04-06 14:59 | 27.69753 | 86.71178 | 9859 ft | 158 kts | 249° |
| 2026-04-06 14:59 | 27.68873 | 86.70614 | 9628 ft | 168 kts | 165° |
| 2026-04-06 14:59 | 27.68458 | 86.71664 | 9273 ft | 145 kts | 97° |
| 2026-04-06 14:59 | 27.68529 | 86.72668 | 9200 ft | 115 kts | 61° |
| 2026-04-06 15:00 | 27.68767 | 86.73127 | 9394 ft | 23 kts | 65° |
| 2026-04-06 15:00 | 27.68755 | 86.73170 | 9401 ft | 4 kts | 201° |
| 2026-04-06 15:00 | 27.68749 | 86.73157 | 9402 ft | 0 kts | 245° |
| 2026-04-06 15:16 | 27.68726 | 86.73166 | 9408 ft | 12 kts | 108° |
| 2026-04-06 15:17 | 27.68761 | 86.73167 | 9402 ft | 12 kts | 322° |
| 2026-04-06 15:17 | 27.68690 | 86.72989 | 9327 ft | 68 kts | 238° |
| 2026-04-06 15:17 | 27.68271 | 86.72333 | 9149 ft | 130 kts | 222° |
| 2026-04-06 15:17 | 27.67333 | 86.71970 | 9189 ft | 155 kts | 182° |
| 2026-04-06 15:18 | 27.66326 | 86.71879 | 9718 ft | 139 kts | 215° |
| 2026-04-06 15:18 | 27.66213 | 86.70896 | 9803 ft | 158 kts | 319° |
| 2026-04-06 15:18 | 27.67229 | 86.70846 | 9542 ft | 151 kts | 28° |
| 2026-04-06 15:18 | 27.67800 | 86.71309 | 9101 ft | 153 kts | 43° |
| 2026-04-06 15:19 | 27.68317 | 86.72212 | 9024 ft | 118 kts | 67° |
| 2026-04-06 15:19 | 27.68645 | 86.72894 | 9278 ft | 69 kts | 58° |
| 2026-04-06 15:19 | 27.68774 | 86.73153 | 9408 ft | 6 kts | 82° |
| 2026-04-06 15:19 | 27.68752 | 86.73153 | 9403 ft | 0 kts | 229° |
| 2026-04-06 15:42 | 27.68744 | 86.73174 | 9408 ft | 15 kts | 43° |
| 2026-04-06 15:42 | 27.68747 | 86.73183 | 9415 ft | 0 kts | 308° |
| 2026-04-06 15:43 | 27.68750 | 86.73179 | 9408 ft | 8 kts | 310° |
| 2026-04-06 15:43 | 27.68693 | 86.72993 | 9337 ft | 66 kts | 238° |
| 2026-04-06 15:43 | 27.68264 | 86.72371 | 9189 ft | 123 kts | 216° |
| 2026-04-06 15:43 | 27.67383 | 86.72090 | 9363 ft | 142 kts | 182° |
| 2026-04-06 15:44 | 27.66484 | 86.71897 | 9997 ft | 118 kts | 220° |
| 2026-04-06 15:44 | 27.66444 | 86.70977 | 10055 ft | 147 kts | 320° |
| 2026-04-06 15:44 | 27.67525 | 86.70804 | 9627 ft | 179 kts | 23° |
| 2026-04-06 15:44 | 27.68211 | 86.71817 | 9075 ft | 162 kts | 73° |
| 2026-04-06 15:45 | 27.68616 | 86.72834 | 9262 ft | 114 kts | 58° |
| 2026-04-06 15:45 | 27.69013 | 86.73232 | 9703 ft | 74 kts | 329° |
| 2026-04-06 15:45 | 27.69191 | 86.72418 | 9182 ft | 149 kts | 271° |
| 2026-04-06 15:45 | 27.69313 | 86.71151 | 9093 ft | 155 kts | 268° |
| 2026-04-06 15:46 | 27.68693 | 86.70509 | 9515 ft | 142 kts | 172° |
| 2026-04-06 15:46 | 27.68292 | 86.71517 | 9048 ft | 169 kts | 88° |
| 2026-04-06 15:46 | 27.68538 | 86.72693 | 9192 ft | 138 kts | 56° |
| 2026-04-06 15:46 | 27.68936 | 86.73306 | 9762 ft | 73 kts | 6° |
| 2026-04-06 15:47 | 27.69179 | 86.73002 | 9492 ft | 38 kts | 36° |
| 2026-04-06 15:47 | 27.69180 | 86.72985 | 9477 ft | 0 kts | 84° |